Sunday, September 21, 2014, 12:05 PM EDT

KPTB, Petersburg, Dinwiddie County Airport

Location: Petersburg, VA, United States Lat: 37.183
Local Time: 12:05 PM EDT (16:05 GMT) Lon: -77.517
Time Zone: US/Eastern Elev: 193 ft

Show me the last for .
Show Decoded

2014-09-21 11:35 METAR KPTB 211535Z AUTO 31005KT 10SM CLR 22/16 A2986 RMK AO2 T02210161 =
2014-09-21 11:15 METAR KPTB 211515Z AUTO 32003KT 10SM CLR 23/16 A2987 RMK AO2 LTG DSNT NW
                 T02250160 =
2014-09-21 10:55 METAR KPTB 211455Z AUTO 32006KT 10SM CLR 22/16 A2987 RMK AO2 T02200161 =
2014-09-21 10:35 METAR KPTB 211435Z AUTO 32004KT 10SM CLR 22/16 A2987 RMK AO2 T02150162 =
2014-09-21 10:15 METAR KPTB 211415Z AUTO 34005KT 10SM CLR 22/17 A2987 RMK AO2 T02150171 =
2014-09-21 09:55 METAR KPTB 211355Z AUTO 34004KT 10SM CLR 20/17 A2989 RMK AO2 T02020174 =
2014-09-21 09:35 METAR KPTB 211335Z AUTO 35006KT 10SM CLR 20/17 A2988 RMK AO2 T01960173 =
2014-09-21 09:15 METAR KPTB 211315Z AUTO 35005KT 10SM CLR 19/17 A2988 RMK AO2 T01890171 =
2014-09-21 08:55 METAR KPTB 211255Z AUTO 34004KT 10SM CLR 19/17 A2990 RMK AO2 T01850169 =
2014-09-21 08:35 METAR KPTB 211235Z AUTO 33004KT 10SM CLR 18/17 A2990 RMK AO2 T01810167 =
2014-09-21 08:15 METAR KPTB 211215Z AUTO 34003KT 10SM SCT008 18/17 A2990 RMK AO2 T01770165 =
2014-09-21 07:55 METAR KPTB 211155Z AUTO 35005KT 10SM BKN008 18/17 A2990 RMK AO2 T01750165 10186
                 20172 =
2014-09-21 07:15 METAR KPTB 211115Z AUTO 34004KT 10SM CLR 17/17 A2989 RMK AO2 T01730165 =
2014-09-21 06:55 METAR KPTB 211055Z AUTO 34005KT 7SM CLR 17/17 A2988 RMK AO2 T01730165 =
2014-09-21 06:35 METAR KPTB 211035Z AUTO 34004KT 10SM CLR 17/17 A2989 RMK AO2 T01730165 =
2014-09-21 06:15 METAR KPTB 211015Z AUTO 34003KT 7SM CLR 17/17 A2987 RMK AO2 T01730165 =
2014-09-21 05:55 METAR KPTB 210955Z AUTO 34004KT 10SM CLR 18/17 A2988 RMK AO2 T01750166 =
2014-09-21 05:35 METAR KPTB 210935Z AUTO 35005KT 10SM CLR 18/17 A2988 RMK AO2 T01760167 =
2014-09-21 05:15 METAR KPTB 210915Z AUTO 35005KT 10SM CLR 18/17 A2989 RMK AO2 T01760167 =
2014-09-21 04:55 METAR KPTB 210855Z AUTO 36003KT 10SM CLR 18/17 A2990 RMK AO2 T01750165 =
2014-09-21 04:35 METAR KPTB 210835Z AUTO 00000KT 10SM CLR 18/17 A2991 RMK AO2 T01800169 =
2014-09-21 04:15 METAR KPTB 210815Z AUTO 35004KT 10SM CLR 18/17 A2992 RMK AO2 T01790169 =
2014-09-21 03:55 METAR KPTB 210755Z AUTO 32004KT 10SM CLR 18/17 A2993 RMK AO2 T01750165 =
2014-09-21 03:35 METAR KPTB 210735Z AUTO 31003KT 10SM CLR 18/17 A2994 RMK AO2 T01770167 =
2014-09-21 03:15 METAR KPTB 210715Z AUTO 00000KT 10SM SCT060 18/17 A2995 RMK AO2 T01810168 =
2014-09-21 02:35 METAR KPTB 210635Z AUTO 08003KT 10SM OVC047 19/17 A2996 RMK AO2 T01860172 =
2014-09-21 02:15 METAR KPTB 210615Z AUTO 35004KT 10SM BKN047 19/17 A2997 RMK AO2 T01850171 =
2014-09-21 01:55 METAR KPTB 210555Z AUTO 35004KT 10SM CLR 19/17 A2998 RMK AO2 T01850171 10211
                 20174 =
2014-09-21 01:35 METAR KPTB 210535Z AUTO 34005KT 10SM CLR 19/17 A2999 RMK AO2 T01850171 =
2014-09-21 01:15 METAR KPTB 210515Z AUTO 36003KT 10SM CLR 19/17 A3000 RMK AO2 T01900172 =
2014-09-21 00:55 METAR KPTB 210455Z AUTO 36005KT 10SM CLR 19/17 A3001 RMK AO2 T01900173 402700105
                 =
2014-09-21 00:35 METAR KPTB 210435Z AUTO 34004KT 10SM CLR 19/17 A3002 RMK AO2 T01900173 =
2014-09-21 00:15 METAR KPTB 210415Z AUTO 35004KT 10SM CLR 19/18 A3003 RMK AO2 T01900175 =
2014-09-20 23:55 METAR KPTB 210355Z AUTO 34003KT 10SM CLR 19/18 A3003 RMK AO2 T01900175 =
2014-09-20 22:55 METAR KPTB 210255Z AUTO 00000KT 10SM CLR 17/16 A3004 RMK AO2 T01740164 =
2014-09-20 22:35 METAR KPTB 210235Z AUTO 00000KT 10SM CLR 18/16 A3003 RMK AO2 T01760163 =
2014-09-20 22:15 METAR KPTB 210215Z AUTO 00000KT 10SM CLR 19/17 A3003 RMK AO2 T01860171 =
2014-09-20 21:55 METAR KPTB 210155Z AUTO 00000KT 10SM CLR 19/17 A3004 RMK AO2 T01910170 =
2014-09-20 21:35 METAR KPTB 210135Z AUTO 06003KT 10SM CLR 20/17 A3005 RMK AO2 T02000168 =
2014-09-20 21:15 METAR KPTB 210115Z AUTO 08004KT 10SM CLR 21/17 A3006 RMK AO2 T02050168 =
2014-09-20 20:35 METAR KPTB 210035Z AUTO 08004KT 10SM CLR 21/17 A3006 RMK AO2 T02080165 =
2014-09-20 20:15 METAR KPTB 210015Z AUTO 08005KT 10SM SCT080 21/16 A3006 RMK AO2 T02100163 =
2014-09-20 19:55 METAR KPTB 202355Z AUTO 07004KT 10SM SCT080 21/16 A3006 RMK AO2 T02100160 10270
                 20209 =
2014-09-20 19:35 METAR KPTB 202335Z AUTO 08004KT 10SM CLR 21/16 A3006 RMK AO2 T02120160 =
2014-09-20 19:15 METAR KPTB 202315Z AUTO 09006KT 10SM SCT031 22/16 A3006 RMK AO2 T02240158 =
2014-09-20 18:55 METAR KPTB 202255Z AUTO 09005KT 10SM SCT090 23/15 A3007 RMK AO2 T02340149 =
2014-09-20 18:35 METAR KPTB 202235Z AUTO 07005KT 10SM SCT090 24/15 A3007 RMK AO2 T02410149 =
2014-09-20 18:15 METAR KPTB 202215Z AUTO 07008KT 10SM CLR 25/15 A3007 RMK AO2 T02460150 =
2014-09-20 17:55 METAR KPTB 202155Z AUTO 07007KT 10SM CLR 25/14 A3007 RMK AO2 T02450138 =
2014-09-20 17:35 METAR KPTB 202135Z AUTO 06008KT 10SM CLR 26/12 A3007 RMK AO2 T02560124 =
2014-09-20 17:15 METAR KPTB 202115Z AUTO 07007KT 10SM CLR 26/13 A3007 RMK AO2 T02570129 =
2014-09-20 16:55 METAR KPTB 202055Z AUTO 04005KT 10SM CLR 26/14 A3008 RMK AO2 T02610140 =
2014-09-20 16:35 METAR KPTB 202035Z AUTO 07007KT 040V100 10SM CLR 26/14 A3008 RMK AO2 T02640141 =
2014-09-20 16:15 METAR KPTB 202015Z AUTO 07009KT 10SM CLR 26/14 A3009 RMK AO2 T02600135 =
2014-09-20 15:55 METAR KPTB 201955Z AUTO 08005KT 10SM CLR 26/13 A3010 RMK AO2 T02560129 =
2014-09-20 15:35 METAR KPTB 201935Z AUTO 08008KT 10SM CLR 26/12 A3010 RMK AO2 T02630123 =
2014-09-20 15:15 METAR KPTB 201915Z AUTO 06005KT 10SM CLR 27/11 A3011 RMK AO2 T02650112 =
2014-09-20 14:35 METAR KPTB 201835Z AUTO 04009KT 10SM CLR 26/10 A3013 RMK AO2 T02630103 =
2014-09-20 14:15 METAR KPTB 201815Z AUTO 09006KT 10SM CLR 27/11 A3014 RMK AO2 T02660113 =
2014-09-20 13:55 METAR KPTB 201755Z AUTO 02010KT 10SM CLR 26/12 A3015 RMK AO2 T02640118 10264
                 20150 =
2014-09-20 13:35 METAR KPTB 201735Z AUTO 04005KT 10SM CLR 26/11 A3017 RMK AO2 T02590108 =
2014-09-20 13:15 METAR KPTB 201715Z AUTO 08008KT 10SM CLR 26/11 A3018 RMK AO2 T02610110 =
2014-09-20 12:55 METAR KPTB 201655Z AUTO 09007KT 10SM CLR 26/12 A3019 RMK AO2 T02580116 =
2014-09-20 12:35 METAR KPTB 201635Z AUTO 04007KT 010V080 10SM CLR 26/11 A3020 RMK AO2 T02560114 =
2014-09-20 12:15 METAR KPTB 201615Z AUTO 07008KT 10SM CLR 26/12 A3021 RMK AO2 T02550117 =

Support USWX by starting your Amazon purchase here.